< < Back
Terminal Aerodrome Forecast


Current Version              Previous Versions:   1  2  3  4  5  6  7  8  9  

Terminal Aerodrome Forecast

560
FTUS42 KCHS 261726
TAFCHS
TAF
KCHS 261726Z 2618/2718 07010KT P6SM SCT025 BKN035
     FM262100 10008KT P6SM SCT020 SCT050
     FM270600 VRB03KT 6SM BR SCT005 SCT015
     FM271400 07007KT P6SM SCT020 SCT040=

Latest METAR

476
SAUS80 KWBC 270200 CCA
MTRCHS
METAR KCHS 270156Z 13005KT 10SM CLR 27/21 A3009 RMK AO2 SLP189
T02670211


USA.gov is the U.S. government's official web portal to all federal, state and local government web resources and services.